createdAt,value
2018-04-08T00:00:24.950Z,11.91
2018-04-08T00:01:25.566Z,11.89
2018-04-08T00:02:26.764Z,11.84
2018-04-08T00:03:26.291Z,11.84
2018-04-08T00:04:26.766Z,11.85
2018-04-08T00:05:26.563Z,11.82
2018-04-08T00:06:26.094Z,11.84
2018-04-08T00:07:26.164Z,11.71
2018-04-08T00:08:25.872Z,11.88
2018-04-08T00:09:25.922Z,11.86
2018-04-08T00:10:27.294Z,11.82
2018-04-08T00:11:26.702Z,11.86
2018-04-08T00:12:27.634Z,11.84
2018-04-08T00:13:27.635Z,11.89
2018-04-08T00:14:27.143Z,11.84
2018-04-08T00:15:26.435Z,11.86
2018-04-08T00:16:26.448Z,11.86
2018-04-08T00:17:26.741Z,11.98
2018-04-08T00:18:27.056Z,11.86
2018-04-08T00:19:26.983Z,11.89
2018-04-08T00:20:27.614Z,11.94
2018-04-08T00:21:27.320Z,12
2018-04-08T00:22:27.508Z,11.95
2018-04-08T00:23:27.375Z,11.94
2018-04-08T00:24:27.936Z,12
2018-04-08T00:25:28.076Z,11.85
2018-04-08T00:26:27.855Z,11.97
2018-04-08T00:27:28.018Z,11.95
2018-04-08T00:28:28.441Z,12.05
2018-04-08T00:29:29.153Z,11.94
2018-04-08T00:30:29.191Z,11.94
2018-04-08T00:31:28.903Z,12
2018-04-08T00:32:29.199Z,12.03
2018-04-08T00:33:28.945Z,12.03
2018-04-08T00:34:28.842Z,11.98
2018-04-08T00:35:29.206Z,11.91
2018-04-08T00:36:30.606Z,11.89
2018-04-08T00:37:29.868Z,11.95
2018-04-08T00:38:30.533Z,11.88
2018-04-08T00:39:30.413Z,11.95
2018-04-08T00:40:30.724Z,11.98
2018-04-08T00:41:31.204Z,11.88
2018-04-08T00:42:31.506Z,11.89
2018-04-08T00:43:31.891Z,11.84
2018-04-08T00:44:32.082Z,11.76
2018-04-08T00:45:32.620Z,11.79
2018-04-08T00:46:32.345Z,11.75
2018-04-08T00:47:33.074Z,11.88
2018-04-08T00:48:33.263Z,11.78
2018-04-08T00:49:33.340Z,11.84
2018-04-08T00:50:32.991Z,11.79
2018-04-08T00:51:33.086Z,11.82
2018-04-08T00:52:33.548Z,11.89
2018-04-08T00:53:33.510Z,11.89
2018-04-08T00:54:33.882Z,11.97
2018-04-08T00:55:34.038Z,11.82
2018-04-08T00:56:33.776Z,11.86
2018-04-08T00:57:34.247Z,11.84
2018-04-08T00:58:34.120Z,11.85
2018-04-08T00:59:34.708Z,11.82
2018-04-08T01:00:35.211Z,11.81
2018-04-08T01:01:35.001Z,11.75
2018-04-08T01:02:35.193Z,11.73
2018-04-08T01:03:35.855Z,11.68
2018-04-08T01:04:35.853Z,11.7
2018-04-08T01:05:35.634Z,11.67
2018-04-08T01:06:36.010Z,11.64
2018-04-08T01:07:36.024Z,11.6
2018-04-08T01:08:36.097Z,11.46
2018-04-08T01:09:36.730Z,11.49
2018-04-08T01:10:37.070Z,11.46
2018-04-08T01:11:37.169Z,11.43
2018-04-08T01:12:36.621Z,11.42
2018-04-08T01:13:36.873Z,11.24
2018-04-08T01:14:37.530Z,11.28
2018-04-08T01:15:37.271Z,11.27
2018-04-08T01:16:37.374Z,11.27
2018-04-08T01:17:37.703Z,11.15
2018-04-08T01:18:37.659Z,11.21
2018-04-08T01:19:37.157Z,11.16
2018-04-08T01:20:37.991Z,11.23
2018-04-08T01:21:38.112Z,11.16
2018-04-08T01:22:37.836Z,11.26
2018-04-08T01:23:38.097Z,11.21
2018-04-08T01:24:37.884Z,11.18
2018-04-08T01:25:38.180Z,11.26
2018-04-08T01:26:38.707Z,11.16
2018-04-08T01:27:38.977Z,11.09
2018-04-08T01:28:38.468Z,11.02
2018-04-08T01:29:38.504Z,11.06
2018-04-08T01:30:38.815Z,11
2018-04-08T01:31:39.134Z,10.87
2018-04-08T01:32:39.150Z,10.88
2018-04-08T01:33:38.946Z,10.87
2018-04-08T01:34:39.006Z,10.88
2018-04-08T01:35:39.651Z,10.8
2018-04-08T01:36:39.671Z,10.66
2018-04-08T01:37:39.732Z,10.72
2018-04-08T01:38:39.781Z,10.63
2018-04-08T01:39:39.780Z,10.65
2018-04-08T01:40:39.798Z,10.65
2018-04-08T01:41:39.826Z,10.65
2018-04-08T01:42:39.883Z,10.65
2018-04-08T01:43:40.058Z,10.63
2018-04-08T01:44:39.884Z,10.66
2018-04-08T01:45:39.957Z,10.55
2018-04-08T01:46:40.124Z,10.61
2018-04-08T01:47:39.736Z,10.57
2018-04-08T01:48:40.354Z,10.47
2018-04-08T01:49:39.544Z,10.59
2018-04-08T01:50:39.598Z,10.49
2018-04-08T01:51:40.448Z,10.54
2018-04-08T01:52:40.721Z,10.49
2018-04-08T01:53:40.832Z,10.41
2018-04-08T01:54:40.579Z,10.57
2018-04-08T01:55:40.631Z,10.46
2018-04-08T01:56:41.592Z,10.52
2018-04-08T01:57:40.873Z,10.54
2018-04-08T01:58:40.918Z,10.39
2018-04-08T01:59:40.678Z,10.41
2018-04-08T02:00:40.950Z,10.39
2018-04-08T02:01:40.997Z,10.39
2018-04-08T02:02:40.737Z,10.47
2018-04-08T02:03:41.063Z,10.44
2018-04-08T02:04:41.088Z,10.47
2018-04-08T02:05:40.825Z,10.49
2018-04-08T02:06:41.185Z,10.41
2018-04-08T02:07:41.145Z,10.47
2018-04-08T02:08:41.184Z,10.47
2018-04-08T02:09:40.695Z,10.46
2018-04-08T02:10:41.240Z,10.39
2018-04-08T02:11:41.297Z,10.41
2018-04-08T02:12:41.055Z,10.46
2018-04-08T02:13:41.204Z,10.47
2018-04-08T02:14:41.757Z,10.39
2018-04-08T02:15:41.821Z,10.35
2018-04-08T02:16:41.838Z,10.44
2018-04-08T02:17:41.877Z,10.44
2018-04-08T02:18:41.615Z,10.39
2018-04-08T02:19:41.941Z,10.33
2018-04-08T02:20:41.687Z,10.35
2018-04-08T02:21:41.988Z,10.29
2018-04-08T02:22:42.020Z,10.28
2018-04-08T02:23:42.043Z,10.33
2018-04-08T02:24:42.083Z,10.26
2018-04-08T02:25:42.125Z,10.29
2018-04-08T02:26:41.854Z,10.31
2018-04-08T02:27:42.204Z,10.18
2018-04-08T02:28:42.241Z,10.26
2018-04-08T02:29:42.256Z,10.25
2018-04-08T02:30:42.043Z,10.25
2018-04-08T02:31:42.330Z,10.32
2018-04-08T02:32:45.385Z,10.26
2018-04-08T02:33:45.390Z,10.28
2018-04-08T02:34:45.700Z,10.18
2018-04-08T02:35:45.548Z,10.26
2018-04-08T02:36:45.780Z,10.23
2018-04-08T02:37:45.882Z,10.2
2018-04-08T02:38:45.900Z,10.14
2018-04-08T02:39:46.159Z,10.18
2018-04-08T02:40:46.228Z,10.11
2018-04-08T02:41:46.234Z,10.08
2018-04-08T02:42:46.268Z,10.14
2018-04-08T02:43:46.283Z,10.14
2018-04-08T02:44:46.326Z,10.1
2018-04-08T02:45:46.366Z,10.05
2018-04-08T02:46:46.380Z,10.15
2018-04-08T02:47:46.144Z,10.1
2018-04-08T02:48:46.449Z,10.1
2018-04-08T02:49:46.505Z,10.2
2018-04-08T02:50:46.508Z,10.17
2018-04-08T02:51:46.257Z,10.18
2018-04-08T02:52:46.490Z,10.17
2018-04-08T02:53:46.952Z,10.21
2018-04-08T02:54:46.827Z,10.1
2018-04-08T02:55:46.303Z,10.18
2018-04-08T02:56:47.100Z,10.14
2018-04-08T02:57:47.266Z,10.02
2018-04-08T02:58:47.373Z,10.03
2018-04-08T02:59:46.862Z,10.1
2018-04-08T03:00:47.565Z,10.08
2018-04-08T03:01:48.036Z,10.08
2018-04-08T03:02:47.776Z,10.02
2018-04-08T03:03:48.356Z,10.02
2018-04-08T03:04:48.464Z,10.07
2018-04-08T03:05:49.070Z,10.07
2018-04-08T03:06:48.723Z,10
2018-04-08T03:07:49.431Z,10.07
2018-04-08T03:08:49.488Z,9.99
2018-04-08T03:09:49.202Z,10.02
2018-04-08T03:10:49.613Z,9.96
2018-04-08T03:11:50.339Z,9.89
2018-04-08T03:12:50.316Z,9.89
2018-04-08T03:13:50.924Z,9.96
2018-04-08T03:14:51.128Z,9.89
2018-04-08T03:15:51.145Z,9.82
2018-04-08T03:16:50.907Z,9.95
2018-04-08T03:17:50.759Z,9.9
2018-04-08T03:18:50.963Z,9.9
2018-04-08T03:19:51.234Z,9.92
2018-04-08T03:20:51.034Z,9.89
2018-04-08T03:21:51.486Z,9.93
2018-04-08T03:22:51.733Z,9.9
2018-04-08T03:23:51.791Z,9.96
2018-04-08T03:24:51.891Z,9.81
2018-04-08T03:25:51.551Z,9.89
2018-04-08T03:26:51.588Z,9.85
2018-04-08T03:27:52.086Z,9.82
2018-04-08T03:28:52.296Z,9.81
2018-04-08T03:29:52.740Z,9.8
2018-04-08T03:30:52.527Z,9.8
2018-04-08T03:31:53.183Z,9.81
2018-04-08T03:32:53.080Z,9.84
2018-04-08T03:33:53.130Z,9.74
2018-04-08T03:34:52.838Z,9.81
2018-04-08T03:35:53.057Z,9.72
2018-04-08T03:36:53.463Z,9.8
2018-04-08T03:37:53.995Z,9.72
2018-04-08T03:38:53.914Z,9.75
2018-04-08T03:39:53.857Z,9.84
2018-04-08T03:40:54.301Z,9.75
2018-04-08T03:41:54.045Z,9.72
2018-04-08T03:42:54.190Z,9.75
2018-04-08T03:43:54.449Z,9.74
2018-04-08T03:44:54.563Z,9.78
2018-04-08T03:45:54.310Z,9.74
2018-04-08T03:46:54.949Z,9.75
2018-04-08T03:47:54.922Z,9.72
2018-04-08T03:48:54.734Z,9.77
2018-04-08T03:49:55.152Z,9.8
2018-04-08T03:50:54.635Z,9.72
2018-04-08T03:51:55.156Z,9.6
2018-04-08T03:52:55.349Z,9.59
2018-04-08T03:53:55.756Z,9.64
2018-04-08T03:54:54.922Z,9.6
2018-04-08T03:55:55.291Z,9.55
2018-04-08T03:56:55.287Z,9.62
2018-04-08T03:57:54.967Z,9.59
2018-04-08T03:58:55.498Z,9.55
2018-04-08T03:59:55.506Z,9.53
2018-04-08T04:00:56.713Z,9.56
2018-04-08T04:01:56.426Z,9.53
2018-04-08T04:02:56.103Z,9.56
2018-04-08T04:03:56.332Z,9.48
2018-04-08T04:04:55.727Z,9.5
2018-04-08T04:05:55.708Z,9.52
2018-04-08T04:06:56.353Z,9.52
2018-04-08T04:07:56.365Z,9.5
2018-04-08T04:08:56.054Z,9.48
2018-04-08T04:09:56.201Z,9.47
2018-04-08T04:10:56.798Z,9.53
2018-04-08T04:11:56.785Z,9.45
2018-04-08T04:12:56.866Z,9.38
2018-04-08T04:13:56.912Z,9.47
2018-04-08T04:14:56.903Z,9.41
2018-04-08T04:15:57.476Z,9.42
2018-04-08T04:16:57.636Z,9.41
2018-04-08T04:17:57.526Z,9.48
2018-04-08T04:18:57.633Z,9.52
2018-04-08T04:19:57.332Z,9.53
2018-04-08T04:20:56.856Z,9.5
2018-04-08T04:21:56.791Z,9.62
2018-04-08T04:22:57.366Z,9.55
2018-04-08T04:23:57.134Z,9.55
2018-04-08T04:24:57.121Z,9.59
2018-04-08T04:25:57.397Z,9.55
2018-04-08T04:26:57.986Z,9.52
2018-04-08T04:27:58.386Z,9.53
2018-04-08T04:28:58.097Z,9.53
2018-04-08T04:29:58.146Z,9.5
2018-04-08T04:30:58.149Z,9.45
2018-04-08T04:31:58.495Z,9.53
2018-04-08T04:32:58.817Z,9.52
2018-04-08T04:33:58.819Z,9.45
2018-04-08T04:34:59.194Z,9.53
2018-04-08T04:35:58.884Z,9.48
2018-04-08T04:36:58.768Z,9.47
2018-04-08T04:37:58.952Z,9.48
2018-04-08T04:38:58.709Z,9.52
2018-04-08T04:39:58.774Z,9.48
2018-04-08T04:40:59.452Z,9.39
2018-04-08T04:41:59.211Z,9.48
2018-04-08T04:42:59.515Z,9.39
2018-04-08T04:43:59.883Z,9.39
2018-04-08T04:44:59.883Z,9.52
2018-04-08T04:45:59.625Z,9.44
2018-04-08T04:46:59.918Z,9.41
2018-04-08T04:47:59.974Z,9.38
2018-04-08T04:49:00.075Z,9.41
2018-04-08T04:50:00.637Z,9.37
2018-04-08T04:51:01.084Z,9.45
2018-04-08T04:52:01.102Z,9.34
2018-04-08T04:53:01.455Z,9.42
2018-04-08T04:54:01.454Z,9.44
2018-04-08T04:55:01.465Z,9.47
2018-04-08T04:56:01.589Z,9.41
2018-04-08T04:57:01.661Z,9.45
2018-04-08T04:58:01.392Z,9.41
2018-04-08T04:59:01.205Z,9.41
2018-04-08T05:00:15.136Z,9.41
2018-04-08T05:01:01.808Z,9.41
2018-04-08T05:02:01.524Z,9.39
2018-04-08T05:03:01.989Z,9.38
2018-04-08T05:04:02.018Z,9.5
2018-04-08T05:05:02.054Z,9.55
2018-04-08T05:06:01.830Z,9.55
2018-04-08T05:07:02.997Z,9.48
2018-04-08T05:08:02.684Z,9.57
2018-04-08T05:09:02.679Z,9.53
2018-04-08T05:10:02.921Z,9.59
2018-04-08T05:11:02.704Z,9.6
2018-04-08T05:12:02.969Z,9.59
2018-04-08T05:13:03.580Z,9.62
2018-04-08T05:14:03.220Z,9.63
2018-04-08T05:15:03.610Z,9.62
2018-04-08T05:16:03.506Z,9.66
2018-04-08T05:17:03.573Z,9.81
2018-04-08T05:18:03.190Z,9.85
2018-04-08T05:19:04.004Z,9.89
2018-04-08T05:20:03.474Z,9.82
2018-04-08T05:21:04.046Z,9.81
2018-04-08T05:22:04.041Z,9.88
2018-04-08T05:23:04.152Z,9.85
2018-04-08T05:24:04.103Z,9.95
2018-04-08T05:25:04.098Z,9.93
2018-04-08T05:26:04.102Z,9.95
2018-04-08T05:27:04.081Z,10.05
2018-04-08T05:28:04.579Z,10.05
2018-04-08T05:29:04.095Z,10.18
2018-04-08T05:30:04.768Z,10.21
2018-04-08T05:31:05.030Z,10.29
2018-04-08T05:32:05.069Z,10.26
2018-04-08T05:33:05.377Z,10.18
2018-04-08T05:34:04.780Z,10.31
2018-04-08T05:35:05.977Z,10.29
2018-04-08T05:36:05.946Z,10.38
2018-04-08T05:37:05.681Z,10.51
2018-04-08T05:38:05.443Z,10.55
2018-04-08T05:39:06.026Z,10.52
2018-04-08T05:40:05.449Z,10.66
2018-04-08T05:41:06.514Z,10.73
2018-04-08T05:42:06.109Z,10.63
2018-04-08T05:43:06.357Z,10.8
2018-04-08T05:44:06.344Z,10.87
2018-04-08T05:45:06.672Z,11.16
2018-04-08T05:46:06.359Z,11.76
2018-04-08T05:47:06.678Z,12.59
2018-04-08T05:48:06.632Z,13.21
2018-04-08T05:49:06.613Z,13.78
2018-04-08T05:50:06.971Z,14.13
2018-04-08T05:51:06.629Z,14.66
2018-04-08T05:52:07.127Z,15.01
2018-04-08T05:53:07.743Z,15.23
2018-04-08T05:54:07.433Z,15.6
2018-04-08T05:55:07.733Z,15.68
2018-04-08T05:56:07.570Z,16.16
2018-04-08T05:57:08.267Z,16.29
2018-04-08T05:58:08.078Z,16.44
2018-04-08T05:59:08.159Z,16.26
2018-04-08T06:00:27.833Z,16.36
2018-04-08T06:01:27.727Z,16.81
2018-04-08T06:02:27.196Z,16.94
2018-04-08T06:03:28.049Z,17.15
2018-04-08T06:04:28.090Z,17.24
2018-04-08T06:05:27.824Z,17.45
2018-04-08T06:06:28.134Z,17.5
2018-04-08T06:07:27.949Z,17.49
2018-04-08T06:08:27.922Z,17.65
2018-04-08T06:09:27.918Z,17.68
2018-04-08T06:10:28.232Z,18.29
2018-04-08T06:11:28.025Z,18.54
2018-04-08T06:12:28.353Z,18.84
2018-04-08T06:13:28.651Z,18.93
2018-04-08T06:14:28.419Z,18.97
2018-04-08T06:15:28.514Z,19.06
2018-04-08T06:16:28.796Z,19.1
2018-04-08T06:17:28.783Z,19.2
2018-04-08T06:18:30.110Z,19.43
2018-04-08T06:19:29.316Z,19.43
2018-04-08T06:20:29.939Z,19.4
2018-04-08T06:21:29.915Z,19.56
2018-04-08T06:22:29.686Z,19.87
2018-04-08T06:23:30.659Z,20.16
2018-04-08T06:24:30.929Z,20.04
2018-04-08T06:25:30.956Z,19.93
2018-04-08T06:26:30.644Z,19.9
2018-04-08T06:27:30.444Z,20.3
2018-04-08T06:28:29.924Z,20.49
2018-04-08T06:29:29.981Z,20.79
2018-04-08T06:30:31.133Z,20.72
2018-04-08T06:31:30.547Z,20.57
2018-04-08T06:32:30.301Z,20.68
2018-04-08T06:33:30.329Z,21.18
2018-04-08T06:34:30.424Z,21.23
2018-04-08T06:35:30.384Z,21.04
2018-04-08T06:36:30.142Z,20.83
2018-04-08T06:37:30.455Z,20.94
2018-04-08T06:38:30.493Z,20.91
2018-04-08T06:39:30.511Z,20.91
2018-04-08T06:40:30.597Z,20.83
2018-04-08T06:41:30.319Z,20.98
2018-04-08T06:42:30.681Z,21.45
2018-04-08T06:43:30.681Z,21.7
2018-04-08T06:44:31.011Z,21.51
2018-04-08T06:45:31.019Z,21.34
2018-04-08T06:46:31.072Z,21.09
2018-04-08T06:47:31.112Z,20.93
2018-04-08T06:48:31.276Z,21.01
2018-04-08T06:49:31.300Z,20.96
2018-04-08T06:50:31.564Z,20.78
2018-04-08T06:51:31.319Z,20.9
2018-04-08T06:52:31.854Z,21.23
2018-04-08T06:53:31.834Z,20.93
2018-04-08T06:54:31.464Z,21.18
2018-04-08T06:55:31.468Z,21.3
2018-04-08T06:56:32.447Z,21.59
2018-04-08T06:57:31.643Z,21.97
2018-04-08T06:58:31.993Z,22.29
2018-04-08T06:59:31.712Z,22.48
2018-04-08T07:00:32.186Z,22.16
2018-04-08T07:01:32.271Z,22.08
2018-04-08T07:02:32.549Z,22.07
2018-04-08T07:03:32.670Z,22.41
2018-04-08T07:04:32.313Z,22.59
2018-04-08T07:05:33.107Z,23.19
2018-04-08T07:06:33.044Z,23.41
2018-04-08T07:07:33.153Z,23.18
2018-04-08T07:08:33.162Z,23.19
2018-04-08T07:09:32.944Z,22.67
2018-04-08T07:10:32.931Z,23.18
2018-04-08T07:11:33.505Z,23.26
2018-04-08T07:12:32.975Z,23.75
2018-04-08T07:13:33.043Z,24.45
2018-04-08T07:14:34.484Z,24.15
2018-04-08T07:15:34.751Z,24.24
2018-04-08T07:16:33.567Z,24.39
2018-04-08T07:17:34.009Z,24.14
2018-04-08T07:18:33.906Z,23.59
2018-04-08T07:19:34.007Z,23.15
2018-04-08T07:20:34.575Z,23.16
2018-04-08T07:21:34.783Z,22.78
2018-04-08T07:22:34.820Z,22.76
2018-04-08T07:23:35.182Z,22.75
2018-04-08T07:24:35.843Z,23.19
2018-04-08T07:25:35.732Z,23.26
2018-04-08T07:26:36.138Z,23.29
2018-04-08T07:27:35.850Z,23.4
2018-04-08T07:28:36.115Z,23.38
2018-04-08T07:29:36.127Z,23.34
2018-04-08T07:30:36.172Z,23.37
2018-04-08T07:31:36.645Z,23.4
2018-04-08T07:32:36.552Z,23.82
2018-04-08T07:33:36.876Z,23.82
2018-04-08T07:34:37.131Z,23.66
2018-04-08T07:35:37.095Z,23.72
2018-04-08T07:36:36.601Z,23.78
2018-04-08T07:37:36.895Z,24.29
2018-04-08T07:38:37.599Z,24.75
2018-04-08T07:39:37.044Z,24.87
2018-04-08T07:40:37.406Z,24.66
2018-04-08T07:41:37.738Z,24.74
2018-04-08T07:42:38.019Z,24.71
2018-04-08T07:43:38.278Z,24.45
2018-04-08T07:44:38.082Z,24.44
2018-04-08T07:45:37.806Z,24.42
2018-04-08T07:46:38.469Z,24.51
2018-04-08T07:47:38.474Z,24.8
2018-04-08T07:48:38.920Z,25.44
2018-04-08T07:49:38.662Z,25.7
2018-04-08T07:50:39.010Z,26.07
2018-04-08T07:51:38.716Z,26.12
2018-04-08T07:52:39.229Z,26.22
2018-04-08T07:53:39.754Z,26.12
2018-04-08T07:54:39.762Z,26
2018-04-08T07:55:39.558Z,25.81
2018-04-08T07:56:39.646Z,25.42
2018-04-08T07:57:39.716Z,25.54
2018-04-08T07:58:39.211Z,25.57
2018-04-08T07:59:39.824Z,25.91
2018-04-08T08:00:39.952Z,25.86
2018-04-08T08:01:39.857Z,25.96
2018-04-08T08:02:40.041Z,25.76
2018-04-08T08:03:39.885Z,25.94
2018-04-08T08:04:40.267Z,25.81
2018-04-08T08:05:39.976Z,25.74
2018-04-08T08:06:40.733Z,26.01
2018-04-08T08:07:40.719Z,26.5
2018-04-08T08:08:40.983Z,27.04
2018-04-08T08:09:41.216Z,27.45
2018-04-08T08:10:41.207Z,28.16
2018-04-08T08:11:41.491Z,28.39
2018-04-08T08:12:41.354Z,28.55
2018-04-08T08:13:41.086Z,28.28
2018-04-08T08:14:41.752Z,27.96
2018-04-08T08:15:41.471Z,27.45
2018-04-08T08:16:41.268Z,26.89
2018-04-08T08:17:42.047Z,26.94
2018-04-08T08:18:42.083Z,26.68
2018-04-08T08:19:42.055Z,26.99
2018-04-08T08:20:42.598Z,26.71
2018-04-08T08:21:42.366Z,26.72
2018-04-08T08:22:42.410Z,26.71
2018-04-08T08:23:42.833Z,26.76
2018-04-08T08:24:42.755Z,27
2018-04-08T08:25:42.495Z,27.28
2018-04-08T08:26:42.476Z,27.9
2018-04-08T08:27:43.272Z,27.98
2018-04-08T08:28:43.640Z,27.53
2018-04-08T08:29:43.552Z,27.64
2018-04-08T08:30:43.697Z,28.01
2018-04-08T08:31:43.355Z,28.51
2018-04-08T08:32:43.598Z,29.13
2018-04-08T08:33:43.640Z,29.01
2018-04-08T08:34:43.990Z,29.26
2018-04-08T08:35:44.558Z,29.55
2018-04-08T08:36:45.085Z,29.61
2018-04-08T08:37:44.469Z,29.08
2018-04-08T08:38:46.140Z,28.98
2018-04-08T08:39:45.621Z,28.49
2018-04-08T08:40:45.001Z,27.79
2018-04-08T08:41:45.296Z,27.98
2018-04-08T08:42:46.764Z,28.21
2018-04-08T08:43:45.654Z,28.57
2018-04-08T08:44:45.905Z,29.14
2018-04-08T08:45:47.216Z,29.29
2018-04-08T08:46:46.745Z,29.05
2018-04-08T08:47:46.779Z,29.29
2018-04-08T08:48:47.312Z,29.7
2018-04-08T08:49:47.428Z,29.63
2018-04-08T08:50:47.507Z,28.76
2018-04-08T08:51:47.331Z,28.68
2018-04-08T08:52:47.747Z,28.55
2018-04-08T08:53:47.157Z,28.38
2018-04-08T08:54:47.537Z,28.46
2018-04-08T08:55:47.895Z,28.95
2018-04-08T08:56:48.032Z,29.01
2018-04-08T08:57:48.291Z,29.36
2018-04-08T08:58:48.446Z,29.29
2018-04-08T08:59:48.115Z,30.03
2018-04-08T09:00:48.449Z,30.39
2018-04-08T09:01:48.344Z,30.44
2018-04-08T09:02:48.040Z,30.24
2018-04-08T09:03:48.624Z,30.06
2018-04-08T09:04:49.135Z,29.81
2018-04-08T09:05:48.985Z,29.91
2018-04-08T09:06:49.454Z,30.32
2018-04-08T09:07:49.655Z,30.34
2018-04-08T09:08:49.687Z,30.71
2018-04-08T09:09:49.843Z,30.97
2018-04-08T09:10:50.000Z,31.04
2018-04-08T09:11:50.566Z,31.06
2018-04-08T09:12:50.810Z,30.64
2018-04-08T09:13:51.237Z,30.45
2018-04-08T09:14:50.854Z,30.47
2018-04-08T09:15:51.522Z,30.13
2018-04-08T09:16:51.944Z,30.11
2018-04-08T09:17:52.392Z,30.26
2018-04-08T09:18:52.549Z,30.42
2018-04-08T09:19:52.587Z,30.45
2018-04-08T09:20:52.742Z,30.57
2018-04-08T09:21:52.619Z,30.47
2018-04-08T09:22:53.453Z,30.44
2018-04-08T09:23:53.513Z,30.59
2018-04-08T09:24:53.426Z,30.91
2018-04-08T09:25:54.083Z,30.91
2018-04-08T09:26:53.773Z,30.16
2018-04-08T09:27:54.146Z,30.16
2018-04-08T09:28:54.395Z,30.22
2018-04-08T09:29:53.894Z,30.44
2018-04-08T09:30:54.188Z,30.57
2018-04-08T09:31:54.954Z,30.28
2018-04-08T09:32:54.136Z,29.95
2018-04-08T09:33:54.439Z,29.6
2018-04-08T09:34:54.672Z,29.63
2018-04-08T09:35:54.957Z,29.4
2018-04-08T09:36:55.082Z,29.51
2018-04-08T09:37:55.818Z,29.51
2018-04-08T09:38:55.446Z,29.26
2018-04-08T09:39:55.766Z,28.9
2018-04-08T09:40:55.984Z,29.13
2018-04-08T09:41:56.430Z,29.65
2018-04-08T09:42:56.598Z,29.67
2018-04-08T09:43:57.318Z,29.76
2018-04-08T09:44:57.218Z,30.16
2018-04-08T09:45:57.280Z,30.39
2018-04-08T09:46:57.860Z,30.29
2018-04-08T09:47:57.452Z,30.28
2018-04-08T09:48:57.817Z,30.44
2018-04-08T09:49:58.066Z,29.42
2018-04-08T09:50:58.312Z,29.5
2018-04-08T09:51:58.218Z,29.76
2018-04-08T09:52:58.540Z,29.63
2018-04-08T09:53:58.568Z,29.28
2018-04-08T09:54:58.615Z,29.55
2018-04-08T09:55:58.448Z,28.79
2018-04-08T09:56:58.450Z,28.72
2018-04-08T09:57:58.946Z,28.79
2018-04-08T09:58:59.771Z,28.55
2018-04-08T09:59:59.258Z,28.21
2018-04-08T10:01:00.937Z,28.35
2018-04-08T10:02:01.401Z,27.91
2018-04-08T10:03:01.034Z,28.11
2018-04-08T10:04:01.371Z,28.35
2018-04-08T10:05:02.943Z,28.49
2018-04-08T10:06:00.960Z,28.48
2018-04-08T10:07:01.592Z,28.82
2018-04-08T10:08:00.400Z,29.14
2018-04-08T10:09:01.207Z,28.95
2018-04-08T10:10:01.487Z,28.82
2018-04-08T10:11:01.412Z,29.01
2018-04-08T10:12:01.499Z,28.68
2018-04-08T10:13:01.721Z,28.35
2018-04-08T10:14:01.347Z,27.46
2018-04-08T10:15:01.043Z,27.68
2018-04-08T10:16:01.699Z,27.65
2018-04-08T10:17:02.577Z,27.83
2018-04-08T10:18:01.833Z,28.21
2018-04-08T10:19:01.693Z,28.55
2018-04-08T10:20:01.493Z,28.95
2018-04-08T10:21:01.234Z,29.15
2018-04-08T10:22:01.859Z,28.68
2018-04-08T10:23:01.849Z,28.3
2018-04-08T10:24:01.361Z,27.89
2018-04-08T10:25:01.984Z,27.51
2018-04-08T10:26:01.563Z,27.51
2018-04-08T10:27:02.062Z,27.36
2018-04-08T10:28:01.538Z,27.49
2018-04-08T10:29:01.732Z,27.01
2018-04-08T10:30:04.421Z,27.24
2018-04-08T10:31:02.289Z,27.59
2018-04-08T10:32:02.301Z,27.37
2018-04-08T10:33:02.668Z,27.27
2018-04-08T10:34:02.802Z,27.05
2018-04-08T10:35:03.021Z,27.01
2018-04-08T10:36:02.161Z,26.71
2018-04-08T10:37:04.082Z,26.71
2018-04-08T10:38:02.180Z,26.93
2018-04-08T10:39:02.784Z,26.91
2018-04-08T10:40:02.539Z,26.87
2018-04-08T10:41:02.421Z,26.89
2018-04-08T10:42:02.327Z,26.84
2018-04-08T10:43:02.751Z,26.82
2018-04-08T10:44:02.765Z,26.91
2018-04-08T10:45:02.924Z,26.76
2018-04-08T10:46:03.342Z,27
2018-04-08T10:47:02.793Z,26.82
2018-04-08T10:48:02.395Z,26.72
2018-04-08T10:49:02.614Z,26.52
2018-04-08T10:50:02.509Z,26.17
2018-04-08T10:51:02.768Z,25.63
2018-04-08T10:52:02.546Z,25.78
2018-04-08T10:53:02.298Z,25.85
2018-04-08T10:54:03.648Z,26.12
2018-04-08T10:55:03.476Z,26.38
2018-04-08T10:56:04.009Z,26.63
2018-04-08T10:57:02.795Z,26.84
2018-04-08T10:58:02.372Z,27.26
2018-04-08T10:59:02.629Z,27.12
2018-04-08T11:00:04.829Z,26.44
2018-04-08T11:01:01.356Z,26.15
2018-04-08T11:02:01.438Z,25.93
2018-04-08T11:03:02.053Z,25.78
2018-04-08T11:04:02.073Z,25.79
2018-04-08T11:05:01.957Z,25.85
2018-04-08T11:06:01.892Z,25.84
2018-04-08T11:07:02.474Z,25.6
2018-04-08T11:08:02.505Z,25.24
2018-04-08T11:09:02.482Z,24.92
2018-04-08T11:10:02.411Z,24.77
2018-04-08T11:11:03.048Z,24.66
2018-04-08T11:12:03.529Z,24.52
2018-04-08T11:13:03.784Z,24.51
2018-04-08T11:14:03.013Z,24.3
2018-04-08T11:15:03.392Z,24.17
2018-04-08T11:16:03.480Z,24.07
2018-04-08T11:17:03.409Z,23.82
2018-04-08T11:18:03.867Z,23.96
2018-04-08T11:19:04.038Z,23.97
2018-04-08T11:20:04.056Z,24.21
2018-04-08T11:21:04.185Z,24.12
2018-04-08T11:22:04.420Z,23.94
2018-04-08T11:23:04.366Z,23.7
2018-04-08T11:24:04.392Z,23.6
2018-04-08T11:25:04.517Z,23.59
2018-04-08T11:26:04.968Z,23.55
2018-04-08T11:27:05.239Z,23.44
2018-04-08T11:28:04.737Z,23.35
2018-04-08T11:29:05.218Z,23.28
2018-04-08T11:30:05.620Z,23.24
2018-04-08T11:31:05.514Z,23.16
2018-04-08T11:32:05.705Z,22.88
2018-04-08T11:33:06.152Z,22.63
2018-04-08T11:34:06.062Z,22.48
2018-04-08T11:35:06.100Z,22.45
2018-04-08T11:36:06.400Z,22.46
2018-04-08T11:37:06.208Z,22.39
2018-04-08T11:38:06.472Z,22.36
2018-04-08T11:39:06.494Z,22.31
2018-04-08T11:40:06.699Z,22.22
2018-04-08T11:41:06.453Z,22.27
2018-04-08T11:42:07.212Z,22.15
2018-04-08T11:43:06.970Z,21.93
2018-04-08T11:44:08.001Z,21.77
2018-04-08T11:45:08.080Z,21.66
2018-04-08T11:46:07.806Z,21.7
2018-04-08T11:47:07.823Z,21.74
2018-04-08T11:48:08.290Z,21.73
2018-04-08T11:49:08.195Z,21.76
2018-04-08T11:50:07.668Z,21.77
2018-04-08T11:51:07.829Z,21.61
2018-04-08T11:52:07.839Z,21.37
2018-04-08T11:53:07.895Z,21.22
2018-04-08T11:54:08.088Z,21.03
2018-04-08T11:55:08.507Z,20.75
2018-04-08T11:56:07.959Z,20.56
2018-04-08T11:57:08.264Z,20.53
2018-04-08T11:58:08.434Z,20.42
2018-04-08T11:59:08.890Z,20.44
2018-04-08T12:00:21.285Z,20.26
2018-04-08T12:01:21.717Z,20.37
2018-04-08T12:02:21.334Z,20.37
2018-04-08T12:03:21.751Z,20.37
2018-04-08T12:04:21.886Z,20.42
2018-04-08T12:05:22.112Z,20.46
2018-04-08T12:06:22.514Z,20.37
2018-04-08T12:07:22.879Z,20.34
2018-04-08T12:08:22.692Z,20.41
2018-04-08T12:09:22.173Z,20.35
2018-04-08T12:10:22.204Z,20.29
2018-04-08T12:11:22.599Z,20.34
2018-04-08T12:12:22.777Z,20.26
2018-04-08T12:13:23.709Z,20.25
2018-04-08T12:14:23.062Z,20.12
2018-04-08T12:15:23.968Z,20.22
2018-04-08T12:16:23.133Z,20.23
2018-04-08T12:17:23.291Z,20.2
2018-04-08T12:18:23.590Z,20.18
2018-04-08T12:19:23.622Z,20.16
2018-04-08T12:20:23.767Z,20.23
2018-04-08T12:21:23.535Z,20.2
2018-04-08T12:22:23.838Z,20.2
2018-04-08T12:23:24.235Z,20.04
2018-04-08T12:24:24.658Z,20.08
2018-04-08T12:25:24.997Z,20.02
2018-04-08T12:26:24.937Z,20.07
2018-04-08T12:27:25.231Z,20.07
2018-04-08T12:28:25.266Z,20.1
2018-04-08T12:29:25.321Z,20.04
2018-04-08T12:30:25.359Z,20.12
2018-04-08T12:31:25.731Z,20.01
2018-04-08T12:32:26.382Z,19.93
2018-04-08T12:33:26.286Z,19.97
2018-04-08T12:34:26.027Z,19.93
2018-04-08T12:35:25.803Z,19.87
2018-04-08T12:36:26.900Z,19.86
2018-04-08T12:37:26.468Z,19.87
2018-04-08T12:38:27.466Z,19.83
2018-04-08T12:39:27.305Z,19.86
2018-04-08T12:40:27.179Z,19.89
2018-04-08T12:41:27.455Z,20.05
2018-04-08T12:42:27.887Z,20.05
2018-04-08T12:43:28.011Z,20.05
2018-04-08T12:44:27.747Z,20.1
2018-04-08T12:45:27.970Z,20.04
2018-04-08T12:46:28.042Z,20.1
2018-04-08T12:47:27.526Z,20.02
2018-04-08T12:48:27.534Z,20.11
2018-04-08T12:49:27.586Z,20.05
2018-04-08T12:50:28.133Z,20.15
2018-04-08T12:51:28.567Z,20
2018-04-08T12:52:28.497Z,19.97
2018-04-08T12:53:28.464Z,20.11
2018-04-08T12:54:29.464Z,20.05
2018-04-08T12:55:29.577Z,20.08
2018-04-08T12:56:29.805Z,20.02
2018-04-08T12:57:29.456Z,20.07
2018-04-08T12:58:28.890Z,20.11
2018-04-08T12:59:28.865Z,20.08
2018-04-08T13:00:32.278Z,20.04
2018-04-08T13:01:32.374Z,20.08